Time;durP1;ratioP1;P1;durP2;ratioP2;P2;SDS_P1;SDS_P2;PMS_P1;PMS_P2;Temp;Humidity;BMP_temperature;BMP_pressure;BME280_temperature;BME280_humidity;BME280_pressure;Samples;Min_cycle;Max_cycle;Signal;HPM_P1;HPM_P2
2021/08/09 00:00:17;;;;;;;;;;;28.00;95.90;;;;;;1879295;75;20236;-89
2021/08/09 00:02:47;;;;;;;;;;;28.00;95.90;;;;;;1835287;77;20170;-91
2021/08/09 00:05:17;;;;;;;;;;;28.00;96.00;;;;;;1783732;79;20514;-91
2021/08/09 00:07:46;;;;;;;;;;;28.00;96.00;;;;;;1827334;77;20140;-91
2021/08/09 00:10:16;;;;;;;;;;;28.10;96.00;;;;;;1766358;78;20612;-91
2021/08/09 00:12:46;;;;;;;;;;;28.10;96.00;;;;;;1773812;79;20159;-88
2021/08/09 00:15:17;;;;;;;;;;;28.10;95.90;;;;;;1813300;77;20127;-88
2021/08/09 00:17:46;;;;;;;;;;;28.10;95.80;;;;;;1793031;79;20184;-89
2021/08/09 00:20:18;;;;;;;;;;;28.20;95.80;;;;;;1851813;76;20253;-89
2021/08/09 00:22:48;;;;;;;;;;;28.20;95.70;;;;;;1864707;76;20204;-89
2021/08/09 00:25:18;;;;;;;;;;;28.30;95.60;;;;;;1869866;75;20159;-87
2021/08/09 00:27:49;;;;;;;;;;;28.30;95.50;;;;;;1871361;76;20156;-89
2021/08/09 00:30:23;;;;;;;;;;;28.40;95.40;;;;;;1876341;76;20233;-88
2021/08/09 00:32:53;;;;;;;;;;;28.50;95.10;;;;;;1861388;76;20166;-89
2021/08/09 00:35:42;;;;;;;;;;;28.60;95.00;;;;;;1866628;76;20154;-90
2021/08/09 00:38:11;;;;;;;;;;;28.60;94.20;;;;;;1851845;76;20158;-90
2021/08/09 00:40:43;;;;;;;;;;;28.70;94.40;;;;;;1854090;76;20194;-92
2021/08/09 00:43:13;;;;;;;;;;;28.70;94.30;;;;;;1856341;76;20151;-90
2021/08/09 00:45:45;;;;;;;;;;;28.70;94.40;;;;;;1852569;76;20143;-91
2021/08/09 00:48:15;;;;;;;;;;;28.70;94.40;;;;;;1848615;76;20273;-88
2021/08/09 00:50:45;;;;;;;;;;;28.70;94.30;;;;;;1856246;76;20193;-91
2021/08/09 00:53:14;;;;;;;;;;;28.80;94.20;;;;;;1853651;76;20354;-91
2021/08/09 00:55:46;;;;;;;;;;;28.80;93.90;;;;;;1847899;75;20238;-91
2021/08/09 00:58:19;;;;;;;;;;;28.80;93.90;;;;;;1861039;76;20274;-88
2021/08/09 01:00:50;;;;;;;;;;;28.90;94.10;;;;;;1850159;76;20267;-90
2021/08/09 01:03:21;;;;;;;;;;;28.90;94.00;;;;;;1851788;76;20296;-89
2021/08/09 01:05:51;;;;;;;;;;;28.90;93.80;;;;;;1854218;76;20245;-89
2021/08/09 01:08:37;;;;;;;;;;;29.00;93.60;;;;;;1856767;76;20255;-90
2021/08/09 01:11:20;;;;;;;;;;;29.10;93.30;;;;;;1855283;76;20724;-90
2021/08/09 01:13:51;;;;;;;;;;;29.20;93.40;;;;;;1849251;76;20123;-91
2021/08/09 01:16:29;;;;;;;;;;;29.20;93.50;;;;;;1854895;76;20237;-90
2021/08/09 01:19:03;;;;;;;;;;;29.30;93.40;;;;;;1858362;76;20229;-90
2021/08/09 01:21:36;;;;;;;;;;;29.40;93.30;;;;;;1856857;76;20225;-90
2021/08/09 01:24:10;;;;;;;;;;;29.50;93.00;;;;;;1851717;76;20230;-91
2021/08/09 01:26:42;;;;;;;;;;;29.60;92.60;;;;;;1741257;80;20621;-92
2021/08/09 01:29:16;;;;;;;;;;;29.70;92.50;;;;;;1763110;80;20184;-90
2021/08/09 01:31:52;;;;;;;;;;;29.80;91.90;;;;;;1766414;80;20283;-91
2021/08/09 01:34:23;;;;;;;;;;;29.90;91.80;;;;;;1771442;80;20196;-91
2021/08/09 01:36:53;;;;;;;;;;;29.90;91.30;;;;;;1763212;80;20426;-89
2021/08/09 01:39:28;;;;;;;;;;;30.00;91.30;;;;;;1661830;85;20232;-91
2021/08/09 01:42:02;;;;;;;;;;;30.10;91.10;;;;;;1769636;80;20483;-91
2021/08/09 01:44:34;;;;;;;;;;;30.20;91.00;;;;;;1771841;79;20259;-92
2021/08/09 01:47:18;;;;;;;;;;;30.30;91.20;;;;;;1773418;80;20225;-89
2021/08/09 01:49:47;;;;;;;;;;;30.40;91.10;;;;;;1772684;80;20221;-89
2021/08/09 01:52:20;;;;;;;;;;;30.50;89.70;;;;;;1773581;79;20298;-93
2021/08/09 01:55:24;;;;;;;;;;;30.60;90.50;;;;;;1770663;80;20271;-90
2021/08/09 01:57:54;;;;;;;;;;;30.70;90.40;;;;;;1772724;80;20234;-90
2021/08/09 02:00:29;;;;;;;;;;;30.80;89.60;;;;;;1741661;81;20235;-90
2021/08/09 02:02:58;;;;;;;;;;;30.90;89.00;;;;;;1769769;79;20224;-91
2021/08/09 02:05:31;;;;;;;;;;;31.10;87.30;;;;;;1815095;77;20179;-91
2021/08/09 02:08:05;;;;;;;;;;;31.10;86.80;;;;;;1814898;78;20619;-89
2021/08/09 02:10:35;;;;;;;;;;;31.20;87.40;;;;;;1818937;78;20243;-91
2021/08/09 02:13:09;;;;;;;;;;;31.30;87.20;;;;;;1822005;77;20142;-91
2021/08/09 02:15:41;;;;;;;;;;;31.50;84.50;;;;;;1803170;79;20272;-91
2021/08/09 02:18:12;;;;;;;;;;;31.60;85.00;;;;;;1787799;79;20179;-92
2021/08/09 02:20:43;;;;;;;;;;;31.70;83.50;;;;;;1759737;80;20235;-90
2021/08/09 02:23:14;;;;;;;;;;;31.80;82.80;;;;;;1759963;80;20146;-88
2021/08/09 02:25:45;;;;;;;;;;;32.00;83.20;;;;;;1799591;79;20180;-90
2021/08/09 02:28:18;;;;;;;;;;;32.10;81.50;;;;;;1786398;79;20123;-91
2021/08/09 02:30:50;;;;;;;;;;;32.20;80.10;;;;;;1788108;79;20190;-91
2021/08/09 02:33:22;;;;;;;;;;;32.20;82.40;;;;;;1790170;79;20196;-90
2021/08/09 02:35:53;;;;;;;;;;;32.30;80.10;;;;;;1792906;79;20449;-90
2021/08/09 02:38:24;;;;;;;;;;;32.40;78.60;;;;;;1797775;77;20203;-87
2021/08/09 02:40:54;;;;;;;;;;;32.40;77.40;;;;;;1840163;77;20259;-89
2021/08/09 02:43:24;;;;;;;;;;;32.40;77.40;;;;;;1892305;75;20290;-91
2021/08/09 02:45:54;;;;;;;;;;;32.40;77.30;;;;;;1894819;75;20326;-89
2021/08/09 02:48:29;;;;;;;;;;;32.50;77.70;;;;;;1880414;75;20179;-90
2021/08/09 02:51:18;;;;;;;;;;;32.50;77.90;;;;;;1828472;77;20261;-90
2021/08/09 02:53:48;;;;;;;;;;;32.50;77.00;;;;;;1823470;78;20265;-89
2021/08/09 02:56:19;;;;;;;;;;;32.60;77.30;;;;;;1823060;77;20280;-87
2021/08/09 02:59:05;;;;;;;;;;;32.70;76.20;;;;;;1792718;78;20265;-91
2021/08/09 03:01:53;;;;;;;;;;;32.90;75.30;;;;;;1816284;78;20241;-91
2021/08/09 03:04:23;;;;;;;;;;;33.00;74.80;;;;;;1813857;78;20127;-91
2021/08/09 03:10:16;;;;;;;;;;;33.20;75.30;;;;;;1818241;77;20204;-91
2021/08/09 03:12:46;;;;;;;;;;;33.40;74.90;;;;;;1816737;78;20199;-88
2021/08/09 03:15:49;;;;;;;;;;;33.50;74.00;;;;;;1820405;77;20269;-91
2021/08/09 03:17:57;;;;;;;;;;;33.60;71.60;;;;;;1801254;77;20145;-89
2021/08/09 03:20:27;;;;;;;;;;;33.60;72.40;;;;;;1817580;77;20204;-90
2021/08/09 03:23:07;;;;;;;;;;;33.60;72.60;;;;;;1816834;77;20200;-91
2021/08/09 03:25:31;;;;;;;;;;;33.70;73.40;;;;;;1811209;78;20135;-92
2021/08/09 03:28:02;;;;;;;;;;;33.80;72.10;;;;;;1818622;78;20213;-90
2021/08/09 03:31:03;;;;;;;;;;;;;;;;;;;;;
2021/08/09 03:33:42;;;;;;;;;;;33.90;71.30;;;;;;1820931;78;20233;-90
2021/08/09 03:36:13;;;;;;;;;;;34.10;71.40;;;;;;1837064;77;20203;-91
2021/08/09 03:38:43;;;;;;;;;;;34.10;70.90;;;;;;1879262;75;20208;-91
2021/08/09 03:41:12;;;;;;;;;;;34.10;69.70;;;;;;1850382;76;20399;-91
2021/08/09 03:43:42;;;;;;;;;;;34.00;71.80;;;;;;1848161;76;20202;-91
2021/08/09 03:46:16;;;;;;;;;;;34.10;71.30;;;;;;1847729;75;20159;-93
2021/08/09 03:48:48;;;;;;;;;;;34.20;71.10;;;;;;1812099;78;20255;-91
2021/08/09 03:51:18;;;;;;;;;;;34.20;71.00;;;;;;1818149;78;20134;-91
2021/08/09 03:53:47;;;;;;;;;;;34.30;69.90;;;;;;1799576;79;20405;-91
2021/08/09 03:56:20;;;;;;;;;;;34.40;69.60;;;;;;1758819;80;20169;-90
2021/08/09 03:58:49;;;;;;;;;;;34.50;69.60;;;;;;1822010;77;20208;-92
2021/08/09 04:01:20;;;;;;;;;;;34.50;68.90;;;;;;1820117;77;20165;-92
2021/08/09 04:03:50;;;;;;;;;;;34.50;69.10;;;;;;1784270;79;20218;-91
2021/08/09 04:06:20;;;;;;;;;;;34.60;67.60;;;;;;1802992;78;20144;-88
2021/08/09 04:08:54;;;;;;;;;;;34.60;68.30;;;;;;1786397;80;20179;-90
2021/08/09 04:11:23;;;;;;;;;;;34.70;68.90;;;;;;1783972;78;20199;-90
2021/08/09 04:13:53;;;;;;;;;;;34.80;69.40;;;;;;1815301;77;20193;-88
2021/08/09 04:16:22;;;;;;;;;;;34.90;67.90;;;;;;1800998;78;20216;-90
2021/08/09 04:18:53;;;;;;;;;;;34.90;66.70;;;;;;1811942;78;20214;-91
2021/08/09 04:21:22;;;;;;;;;;;35.00;65.70;;;;;;1798413;79;20191;-93
2021/08/09 04:23:53;;;;;;;;;;;35.00;64.60;;;;;;1804589;77;20194;-87
2021/08/09 04:26:23;;;;;;;;;;;35.00;66.10;;;;;;1785226;80;20131;-89
2021/08/09 04:28:57;;;;;;;;;;;35.10;65.70;;;;;;1816453;79;20207;-92
2021/08/09 04:31:31;;;;;;;;;;;35.20;66.00;;;;;;1816390;79;20195;-91
2021/08/09 04:34:05;;;;;;;;;;;35.20;66.20;;;;;;1759134;80;20616;-91
2021/08/09 04:39:46;;;;;;;;;;;35.40;65.40;;;;;;1783352;80;20182;-90
2021/08/09 04:42:22;;;;;;;;;;;35.40;65.90;;;;;;1758599;79;20133;-89
2021/08/09 04:44:58;;;;;;;;;;;35.40;65.60;;;;;;1792365;79;20211;-90
2021/08/09 04:47:28;;;;;;;;;;;35.30;65.50;;;;;;1784730;79;20167;-90
2021/08/09 04:50:01;;;;;;;;;;;35.10;66.20;;;;;;1804324;78;20258;-89
2021/08/09 04:52:37;;;;;;;;;;;35.00;67.00;;;;;;1857244;76;20108;-89
2021/08/09 04:55:24;;;;;;;;;;;34.80;67.30;;;;;;1836089;74;20182;-90
2021/08/09 04:57:53;;;;;;;;;;;34.90;67.00;;;;;;1861446;76;20213;-89
2021/08/09 05:00:23;;;;;;;;;;;35.00;65.00;;;;;;1856186;76;20167;-91
2021/08/09 05:02:53;;;;;;;;;;;35.00;67.30;;;;;;1855503;76;20222;-89
2021/08/09 05:05:23;;;;;;;;;;;35.00;69.10;;;;;;1791305;78;20155;-91
2021/08/09 05:07:59;;;;;;;;;;;35.10;67.90;;;;;;1827575;74;20211;-89
2021/08/09 05:10:58;;;;;;;;;;;35.20;67.20;;;;;;1814452;77;20179;-91
2021/08/09 05:13:36;;;;;;;;;;;35.40;64.60;;;;;;1790075;79;20265;-92
2021/08/09 05:16:17;;;;;;;;;;;35.60;68.10;;;;;;1773323;79;20223;-90
2021/08/09 05:19:02;;;;;;;;;;;35.60;64.10;;;;;;1805978;79;20168;-89
2021/08/09 05:21:37;;;;;;;;;;;35.60;62.70;;;;;;1817942;79;20516;-77
2021/08/09 05:24:08;;;;;;;;;;;35.40;63.20;;;;;;1854353;77;20740;-78
2021/08/09 05:26:37;;;;;;;;;;;35.30;63.60;;;;;;1851000;77;20283;-78
2021/08/09 05:29:07;;;;;;;;;;;35.10;63.90;;;;;;1850543;77;20505;-78
2021/08/09 05:31:39;;;;;;;;;;;35.00;64.30;;;;;;1846904;77;20178;-78
2021/08/09 05:34:08;;;;;;;;;;;35.00;65.80;;;;;;1821574;78;20161;-78
2021/08/09 05:36:38;;;;;;;;;;;35.00;64.20;;;;;;1787064;80;20190;-78
2021/08/09 05:39:08;;;;;;;;;;;35.00;64.90;;;;;;1804715;79;20212;-79
2021/08/09 05:41:37;;;;;;;;;;;34.90;65.20;;;;;;1785766;80;20186;-79
2021/08/09 05:44:07;;;;;;;;;;;35.00;65.00;;;;;;1783751;79;20237;-79
2021/08/09 05:46:36;;;;;;;;;;;35.00;65.50;;;;;;1812772;79;20184;-77
2021/08/09 05:49:06;;;;;;;;;;;35.00;64.20;;;;;;1805828;79;20139;-78
2021/08/09 05:51:39;;;;;;;;;;;35.00;64.30;;;;;;1805616;78;20137;-78
2021/08/09 05:54:09;;;;;;;;;;;35.00;65.30;;;;;;1784716;80;20438;-77
2021/08/09 05:56:38;;;;;;;;;;;34.90;65.30;;;;;;1810090;79;20244;-78
2021/08/09 05:59:08;;;;;;;;;;;34.80;66.70;;;;;;1809133;78;20210;-77
2021/08/09 06:01:38;;;;;;;;;;;34.70;65.00;;;;;;1777458;80;20204;-78
2021/08/09 06:04:08;;;;;;;;;;;34.60;65.60;;;;;;1811478;79;20176;-77
2021/08/09 06:06:38;;;;;;;;;;;34.70;66.50;;;;;;1811129;79;20125;-78
2021/08/09 06:09:07;;;;;;;;;;;34.70;66.10;;;;;;1821504;78;20131;-78
2021/08/09 06:11:40;;;;;;;;;;;34.80;65.10;;;;;;1809789;77;20189;-77
2021/08/09 06:14:08;;;;;;;;;;;35.00;62.80;;;;;;1788414;79;20282;-77
2021/08/09 06:16:38;;;;;;;;;;;35.00;63.20;;;;;;1822171;77;20209;-78
2021/08/09 06:19:08;;;;;;;;;;;35.00;63.80;;;;;;1805116;79;20215;-78
2021/08/09 06:21:38;;;;;;;;;;;35.00;63.60;;;;;;1812137;77;20573;-78
2021/08/09 06:24:07;;;;;;;;;;;35.00;63.80;;;;;;1804428;79;20251;-78
2021/08/09 06:26:37;;;;;;;;;;;35.10;64.70;;;;;;1802161;77;20174;-78
2021/08/09 06:29:07;;;;;;;;;;;35.20;63.60;;;;;;1804221;79;20218;-78
2021/08/09 06:31:36;;;;;;;;;;;35.20;64.60;;;;;;1794680;79;20152;-77
2021/08/09 06:34:06;;;;;;;;;;;35.20;66.20;;;;;;1794157;79;20222;-78
2021/08/09 06:36:36;;;;;;;;;;;35.30;65.10;;;;;;1818559;79;20180;-78
2021/08/09 06:39:06;;;;;;;;;;;35.40;64.90;;;;;;1807824;79;20207;-78
2021/08/09 06:41:35;;;;;;;;;;;35.30;64.80;;;;;;1798921;79;20195;-78
2021/08/09 06:44:05;;;;;;;;;;;35.30;65.30;;;;;;1808369;77;20493;-77
2021/08/09 06:46:35;;;;;;;;;;;35.30;64.90;;;;;;1813433;78;20175;-77
2021/08/09 06:49:05;;;;;;;;;;;35.30;65.20;;;;;;1819482;79;20246;-78
2021/08/09 06:51:35;;;;;;;;;;;35.40;64.80;;;;;;1808611;79;20506;-78
2021/08/09 06:54:05;;;;;;;;;;;35.40;63.00;;;;;;1813371;79;20597;-76
2021/08/09 06:56:38;;;;;;;;;;;35.40;62.80;;;;;;1814492;78;20432;-78
2021/08/09 06:59:07;;;;;;;;;;;35.50;61.50;;;;;;1805308;79;20249;-77
2021/08/09 07:01:39;;;;;;;;;;;35.60;62.40;;;;;;1799320;79;20221;-77
2021/08/09 07:04:09;;;;;;;;;;;35.80;61.70;;;;;;1811400;79;20534;-78
2021/08/09 07:06:40;;;;;;;;;;;35.90;61.60;;;;;;1805741;77;20178;-79
2021/08/09 07:09:09;;;;;;;;;;;35.90;61.90;;;;;;1802941;78;20182;-78
2021/08/09 07:11:39;;;;;;;;;;;35.80;61.00;;;;;;1814214;77;20206;-78
2021/08/09 07:14:09;;;;;;;;;;;35.80;62.60;;;;;;1793464;79;20598;-78
2021/08/09 07:16:39;;;;;;;;;;;35.90;62.70;;;;;;1817479;79;20412;-77
2021/08/09 07:19:11;;;;;;;;;;;35.90;61.30;;;;;;1812797;79;20209;-79
2021/08/09 07:21:41;;;;;;;;;;;35.80;60.50;;;;;;1797658;77;20227;-78
2021/08/09 07:24:10;;;;;;;;;;;35.80;60.40;;;;;;1819661;78;20231;-78
2021/08/09 07:26:40;;;;;;;;;;;35.80;61.60;;;;;;1815242;78;20213;-78
2021/08/09 07:29:10;;;;;;;;;;;35.80;62.10;;;;;;1805710;79;20179;-78
2021/08/09 07:31:40;;;;;;;;;;;35.70;60.90;;;;;;1810770;77;20452;-78
2021/08/09 07:34:09;;;;;;;;;;;35.70;62.90;;;;;;1820370;79;20172;-78
2021/08/09 07:36:39;;;;;;;;;;;35.70;61.90;;;;;;1820186;79;20236;-78
2021/08/09 07:39:09;;;;;;;;;;;35.70;62.10;;;;;;1820687;79;20176;-77
2021/08/09 07:41:39;;;;;;;;;;;35.50;62.30;;;;;;1810365;78;20236;-77
2021/08/09 07:44:10;;;;;;;;;;;35.40;62.40;;;;;;1817388;79;20168;-76
2021/08/09 07:46:39;;;;;;;;;;;35.40;63.80;;;;;;1818972;77;20123;-77
2021/08/09 07:49:09;;;;;;;;;;;35.40;63.20;;;;;;1816465;79;20503;-77
2021/08/09 07:51:39;;;;;;;;;;;35.40;63.00;;;;;;1817271;79;20232;-77
2021/08/09 07:54:08;;;;;;;;;;;35.50;63.40;;;;;;1818128;78;20361;-77
2021/08/09 07:56:38;;;;;;;;;;;35.60;63.10;;;;;;1816629;79;20176;-77
2021/08/09 07:59:08;;;;;;;;;;;35.60;62.20;;;;;;1818542;77;20216;-78
2021/08/09 08:01:38;;;;;;;;;;;35.70;63.50;;;;;;1817090;78;20211;-78
2021/08/09 08:04:08;;;;;;;;;;;35.60;63.50;;;;;;1818928;78;20195;-77
2021/08/09 08:06:38;;;;;;;;;;;35.60;64.40;;;;;;1818311;79;20545;-78
2021/08/09 08:09:07;;;;;;;;;;;35.60;62.60;;;;;;1792454;79;20509;-77
2021/08/09 08:11:37;;;;;;;;;;;35.50;62.60;;;;;;1787322;80;20158;-77
2021/08/09 08:14:07;;;;;;;;;;;35.50;62.60;;;;;;1800810;79;20212;-77
2021/08/09 08:16:37;;;;;;;;;;;35.60;61.10;;;;;;1806568;78;20173;-77
2021/08/09 08:19:07;;;;;;;;;;;35.60;61.80;;;;;;1806614;79;20516;-77
2021/08/09 08:21:37;;;;;;;;;;;35.50;60.40;;;;;;1821410;77;20176;-77
2021/08/09 08:24:07;;;;;;;;;;;35.50;60.20;;;;;;1840400;77;20193;-76
2021/08/09 08:26:38;;;;;;;;;;;35.50;60.20;;;;;;1838869;78;20162;-77
2021/08/09 08:29:07;;;;;;;;;;;35.50;60.00;;;;;;1816330;77;20219;-77
2021/08/09 08:31:37;;;;;;;;;;;35.50;60.00;;;;;;1827738;78;20454;-77
2021/08/09 08:34:07;;;;;;;;;;;35.50;60.10;;;;;;1830013;78;20201;-77
2021/08/09 08:36:37;;;;;;;;;;;35.50;60.60;;;;;;1831726;78;20386;-78
2021/08/09 08:39:10;;;;;;;;;;;35.60;59.90;;;;;;1826248;78;20168;-78
2021/08/09 08:41:39;;;;;;;;;;;35.60;61.10;;;;;;1839148;77;20213;-78
2021/08/09 08:44:09;;;;;;;;;;;35.70;61.10;;;;;;1824240;77;20182;-77
2021/08/09 08:46:40;;;;;;;;;;;35.80;61.00;;;;;;1832196;77;20231;-78
2021/08/09 08:49:14;;;;;;;;;;;35.80;59.90;;;;;;1827983;78;20239;-77
2021/08/09 08:51:43;;;;;;;;;;;35.80;59.20;;;;;;1830252;78;20182;-78
2021/08/09 08:54:14;;;;;;;;;;;35.70;59.80;;;;;;1832531;78;20233;-78
2021/08/09 08:56:44;;;;;;;;;;;35.60;59.90;;;;;;1828925;77;20257;-77
2021/08/09 08:59:16;;;;;;;;;;;35.60;60.80;;;;;;1824695;76;20162;-77
2021/08/09 09:01:46;;;;;;;;;;;35.50;61.30;;;;;;1831933;78;20259;-79
2021/08/09 09:04:17;;;;;;;;;;;35.30;61.80;;;;;;1830167;78;20538;-77
2021/08/09 09:06:49;;;;;;;;;;;35.30;62.40;;;;;;1829745;78;20192;-78
2021/08/09 09:09:21;;;;;;;;;;;35.20;62.80;;;;;;1829990;78;20244;-77
2021/08/09 09:11:51;;;;;;;;;;;35.10;62.70;;;;;;1828429;78;20235;-78
2021/08/09 09:14:22;;;;;;;;;;;35.00;62.80;;;;;;1831212;78;20210;-78
2021/08/09 09:16:52;;;;;;;;;;;34.90;63.10;;;;;;1826310;77;20188;-78
2021/08/09 09:19:22;;;;;;;;;;;34.90;63.20;;;;;;1828908;78;20212;-78
2021/08/09 09:21:52;;;;;;;;;;;34.80;63.70;;;;;;1833710;78;20505;-78
2021/08/09 09:24:22;;;;;;;;;;;34.80;64.00;;;;;;1833173;78;20290;-78
2021/08/09 09:26:53;;;;;;;;;;;34.80;64.20;;;;;;1828257;78;20532;-78
2021/08/09 09:29:23;;;;;;;;;;;34.70;64.50;;;;;;1827159;78;20168;-77
2021/08/09 09:31:54;;;;;;;;;;;34.80;65.00;;;;;;1829799;78;20174;-77
2021/08/09 09:34:24;;;;;;;;;;;34.80;65.30;;;;;;1821976;77;20467;-77
2021/08/09 09:36:55;;;;;;;;;;;34.80;65.80;;;;;;1830382;78;20223;-76
2021/08/09 09:39:26;;;;;;;;;;;34.70;66.70;;;;;;1834241;78;20273;-77
2021/08/09 09:41:57;;;;;;;;;;;34.40;67.10;;;;;;1828112;77;20203;-79
2021/08/09 09:44:28;;;;;;;;;;;34.20;68.00;;;;;;1838873;77;20479;-78
2021/08/09 09:46:59;;;;;;;;;;;33.90;68.30;;;;;;1826290;77;20181;-78
2021/08/09 09:49:30;;;;;;;;;;;33.70;68.30;;;;;;1827117;78;20243;-79
2021/08/09 09:52:00;;;;;;;;;;;33.50;68.70;;;;;;1834060;78;20212;-78
2021/08/09 09:54:31;;;;;;;;;;;33.40;71.10;;;;;;1835593;78;20280;-78
2021/08/09 09:57:03;;;;;;;;;;;33.20;71.70;;;;;;1797832;78;20226;-78
2021/08/09 09:59:32;;;;;;;;;;;32.90;72.80;;;;;;1798989;79;20465;-78
2021/08/09 10:02:02;;;;;;;;;;;32.60;76.60;;;;;;1825043;78;20612;-78
2021/08/09 10:04:32;;;;;;;;;;;32.20;79.70;;;;;;1826991;78;20263;-79
2021/08/09 10:07:02;;;;;;;;;;;31.70;86.70;;;;;;1829472;78;20168;-77
2021/08/09 10:09:32;;;;;;;;;;;31.20;89.30;;;;;;1816716;78;20211;-76
2021/08/09 10:12:02;;;;;;;;;;;30.00;91.50;;;;;;1823599;78;20231;-77
2021/08/09 10:14:33;;;;;;;;;;;29.60;93.20;;;;;;1822806;77;20202;-76
2021/08/09 10:17:04;;;;;;;;;;;28.80;94.70;;;;;;1818608;78;20223;-75
2021/08/09 10:19:34;;;;;;;;;;;28.10;96.30;;;;;;1816862;79;20513;-77
2021/08/09 10:22:04;;;;;;;;;;;27.80;97.90;;;;;;1821285;78;20137;-76
2021/08/09 10:24:40;;;;;;;;;;;27.60;98.80;;;;;;1840066;76;20231;-77
2021/08/09 10:27:10;;;;;;;;;;;27.60;99.90;;;;;;1834635;77;20110;-78
2021/08/09 10:29:49;;;;;;;;;;;27.60;99.90;;;;;;1830079;75;20145;-77
2021/08/09 10:32:20;;;;;;;;;;;27.70;99.90;;;;;;1832110;76;20271;-77
2021/08/09 10:34:50;;;;;;;;;;;27.90;99.90;;;;;;1835397;77;20114;-76
2021/08/09 10:37:22;;;;;;;;;;;28.10;99.90;;;;;;1833664;77;20216;-76
2021/08/09 10:39:52;;;;;;;;;;;28.30;99.90;;;;;;1833565;78;20223;-77
2021/08/09 10:42:23;;;;;;;;;;;28.50;99.90;;;;;;1834227;77;20146;-78
2021/08/09 10:44:53;;;;;;;;;;;28.70;99.90;;;;;;1827735;77;20201;-77
2021/08/09 10:47:24;;;;;;;;;;;28.70;99.20;;;;;;1807809;78;20189;-78
2021/08/09 10:49:55;;;;;;;;;;;28.80;99.30;;;;;;1806638;78;20125;-77
2021/08/09 10:52:26;;;;;;;;;;;28.90;99.10;;;;;;1807560;78;20197;-77
2021/08/09 10:54:56;;;;;;;;;;;29.10;98.50;;;;;;1825407;78;20218;-77
2021/08/09 10:57:26;;;;;;;;;;;29.20;98.40;;;;;;1829446;78;20184;-78
2021/08/09 10:59:56;;;;;;;;;;;29.30;98.50;;;;;;1822280;78;20204;-78
2021/08/09 11:02:30;;;;;;;;;;;29.40;97.90;;;;;;1813463;78;20446;-78
2021/08/09 11:04:59;;;;;;;;;;;29.40;97.80;;;;;;1814455;78;20192;-78
2021/08/09 11:07:29;;;;;;;;;;;29.40;97.80;;;;;;1804100;79;20225;-78
2021/08/09 11:10:00;;;;;;;;;;;29.40;97.80;;;;;;1827967;77;20534;-77
2021/08/09 11:12:30;;;;;;;;;;;29.30;97.90;;;;;;1822289;77;20208;-77
2021/08/09 11:17:32;;;;;;;;;;;29.20;98.20;;;;;;1834932;77;20134;-79
2021/08/09 11:20:02;;;;;;;;;;;29.10;98.20;;;;;;1818194;78;20145;-78
2021/08/09 11:22:32;;;;;;;;;;;29.10;98.20;;;;;;1785502;79;20422;-77
2021/08/09 11:25:02;;;;;;;;;;;29.20;99.20;;;;;;1781137;78;20252;-77
2021/08/09 11:27:32;;;;;;;;;;;29.20;99.10;;;;;;1821723;78;20217;-78
2021/08/09 11:30:02;;;;;;;;;;;29.10;99.30;;;;;;1790695;78;20190;-77
2021/08/09 11:32:32;;;;;;;;;;;29.10;99.00;;;;;;1787976;79;20267;-77
2021/08/09 11:35:04;;;;;;;;;;;29.10;98.90;;;;;;1803410;79;20968;-76
2021/08/09 11:37:33;;;;;;;;;;;29.10;98.50;;;;;;1824589;78;20196;-76
2021/08/09 11:40:03;;;;;;;;;;;29.20;98.50;;;;;;1786542;79;20202;-77
2021/08/09 11:42:34;;;;;;;;;;;29.30;98.10;;;;;;1785829;79;20238;-78
2021/08/09 11:45:05;;;;;;;;;;;29.50;97.80;;;;;;1822098;77;20221;-77
2021/08/09 11:47:36;;;;;;;;;;;29.60;97.40;;;;;;1829945;77;20156;-78
2021/08/09 11:50:05;;;;;;;;;;;29.60;97.20;;;;;;1820160;77;20251;-77
2021/08/09 11:52:35;;;;;;;;;;;29.70;97.20;;;;;;1836207;77;20279;-77
2021/08/09 11:55:06;;;;;;;;;;;29.70;98.00;;;;;;1833666;77;20208;-78
2021/08/09 11:57:36;;;;;;;;;;;29.80;97.70;;;;;;1820776;77;20193;-77
2021/08/09 12:00:07;;;;;;;;;;;29.70;97.40;;;;;;1831621;77;20208;-76
2021/08/09 12:02:38;;;;;;;;;;;29.80;96.90;;;;;;1834406;77;20414;-76
2021/08/09 12:05:09;;;;;;;;;;;29.80;95.80;;;;;;1807206;79;20212;-78
2021/08/09 12:07:41;;;;;;;;;;;29.90;95.40;;;;;;1800619;79;20161;-77
2021/08/09 12:10:11;;;;;;;;;;;29.90;94.50;;;;;;1810107;78;20121;-77
2021/08/09 12:12:44;;;;;;;;;;;30.00;94.70;;;;;;1802891;77;20365;-77
2021/08/09 12:15:15;;;;;;;;;;;30.00;94.60;;;;;;1805356;77;20521;-77
2021/08/09 12:17:44;;;;;;;;;;;30.10;94.00;;;;;;1811023;77;20266;-75
2021/08/09 12:20:15;;;;;;;;;;;30.10;94.40;;;;;;1828649;77;20234;-78
2021/08/09 12:22:45;;;;;;;;;;;30.10;94.40;;;;;;1783975;80;20229;-78
2021/08/09 12:25:20;;;;;;;;;;;30.10;94.10;;;;;;1821151;77;20216;-76
2021/08/09 12:27:47;;;;;;;;;;;30.10;94.20;;;;;;1826152;77;20242;-78
2021/08/09 12:30:18;;;;;;;;;;;30.20;94.50;;;;;;1786296;78;20205;-78
2021/08/09 12:32:48;;;;;;;;;;;30.20;94.70;;;;;;1820201;77;20252;-77
2021/08/09 12:35:20;;;;;;;;;;;30.20;94.50;;;;;;1805480;78;20280;-87
2021/08/09 12:38:26;;;;;;;;;;;30.20;94.60;;;;;;1806619;78;20332;-90
2021/08/09 12:40:57;;;;;;;;;;;30.20;94.10;;;;;;1802468;78;20188;-91
2021/08/09 12:43:27;;;;;;;;;;;30.20;94.50;;;;;;1819085;76;20245;-90
2021/08/09 12:45:56;;;;;;;;;;;30.20;94.90;;;;;;1824229;77;20143;-91
2021/08/09 12:48:26;;;;;;;;;;;30.20;95.00;;;;;;1820540;76;20185;-89
2021/08/09 12:51:03;;;;;;;;;;;30.20;95.20;;;;;;1813395;77;20155;-90
2021/08/09 12:53:35;;;;;;;;;;;30.20;95.10;;;;;;1812949;77;20228;-88
2021/08/09 12:56:04;;;;;;;;;;;30.20;95.20;;;;;;1814154;77;20914;-89
2021/08/09 12:58:38;;;;;;;;;;;30.10;95.40;;;;;;1812827;77;20876;-90
2021/08/09 13:01:08;;;;;;;;;;;30.20;95.60;;;;;;1815563;77;20127;-91
2021/08/09 13:03:44;;;;;;;;;;;30.10;95.50;;;;;;1811950;77;20203;-92
2021/08/09 13:06:16;;;;;;;;;;;30.10;95.40;;;;;;1795495;77;20203;-89
2021/08/09 13:08:46;;;;;;;;;;;30.10;94.80;;;;;;1816859;77;20423;-90
2021/08/09 13:11:19;;;;;;;;;;;30.10;94.40;;;;;;1828250;77;20228;-90
2021/08/09 13:13:52;;;;;;;;;;;30.10;94.70;;;;;;1812194;77;20220;-91
2021/08/09 13:16:22;;;;;;;;;;;30.10;94.80;;;;;;1818455;77;20219;-90
2021/08/09 13:18:52;;;;;;;;;;;30.10;94.70;;;;;;1789952;78;20286;-91
2021/08/09 13:21:22;;;;;;;;;;;30.10;95.00;;;;;;1770783;80;20310;-89
2021/08/09 13:23:57;;;;;;;;;;;30.10;95.00;;;;;;1760441;79;20179;-89
2021/08/09 13:26:30;;;;;;;;;;;30.10;95.10;;;;;;1839163;77;20243;-92
2021/08/09 13:29:01;;;;;;;;;;;30.10;95.90;;;;;;1829511;77;20480;-90
2021/08/09 13:31:38;;;;;;;;;;;30.10;96.00;;;;;;1805138;77;20176;-92
2021/08/09 13:37:05;;;;;;;;;;;30.10;96.00;;;;;;1646213;85;20257;-90
2021/08/09 13:39:35;;;;;;;;;;;30.10;96.20;;;;;;1646325;85;20237;-88
2021/08/09 13:42:14;;;;;;;;;;;30.10;95.70;;;;;;1695666;81;20704;-92
2021/08/09 13:44:43;;;;;;;;;;;30.10;95.40;;;;;;1736421;80;20402;-89
2021/08/09 13:47:22;;;;;;;;;;;30.10;95.10;;;;;;1727298;82;20271;-89
2021/08/09 13:49:47;;;;;;;;;;;30.10;97.00;;;;;;1707681;83;20212;-91
2021/08/09 13:52:17;;;;;;;;;;;30.10;97.20;;;;;;1719463;83;20248;-90
2021/08/09 13:54:46;;;;;;;;;;;30.00;97.20;;;;;;1721682;83;20239;-89
2021/08/09 13:57:17;;;;;;;;;;;29.90;97.10;;;;;;1719293;83;20245;-90
2021/08/09 13:59:47;;;;;;;;;;;29.90;96.90;;;;;;1720229;83;20223;-88
2021/08/09 14:02:17;;;;;;;;;;;30.00;97.00;;;;;;1706814;83;20265;-90
2021/08/09 14:04:47;;;;;;;;;;;29.90;97.30;;;;;;1701357;83;20337;-89
2021/08/09 14:07:16;;;;;;;;;;;30.00;97.30;;;;;;1701906;83;20309;-90
2021/08/09 14:09:46;;;;;;;;;;;29.90;97.90;;;;;;1705399;82;20316;-87
2021/08/09 14:12:16;;;;;;;;;;;29.90;97.70;;;;;;1709415;83;20616;-90
2021/08/09 14:14:47;;;;;;;;;;;29.80;97.50;;;;;;1759763;79;20217;-91
2021/08/09 14:17:18;;;;;;;;;;;29.90;97.60;;;;;;1821792;72;20226;-89
2021/08/09 14:19:49;;;;;;;;;;;29.90;97.50;;;;;;1834028;76;20209;-87
2021/08/09 14:22:19;;;;;;;;;;;29.90;97.80;;;;;;1830618;75;20206;-89
2021/08/09 14:24:48;;;;;;;;;;;29.90;97.40;;;;;;1829552;77;20476;-86
2021/08/09 14:27:18;;;;;;;;;;;30.00;97.40;;;;;;1787210;77;20245;-86
2021/08/09 14:29:53;;;;;;;;;;;30.00;97.80;;;;;;1819471;77;20277;-92
2021/08/09 14:32:24;;;;;;;;;;;30.00;97.50;;;;;;1796366;78;20252;-92
2021/08/09 14:34:57;;;;;;;;;;;30.00;97.40;;;;;;1815317;78;20184;-89
2021/08/09 14:37:28;;;;;;;;;;;30.00;97.10;;;;;;1811616;77;20200;-91
2021/08/09 14:39:58;;;;;;;;;;;30.00;97.20;;;;;;1787016;78;20181;-89
2021/08/09 14:42:29;;;;;;;;;;;30.00;97.00;;;;;;1820836;76;20185;-88
2021/08/09 14:44:59;;;;;;;;;;;30.00;96.30;;;;;;1817184;76;20282;-90
2021/08/09 14:47:29;;;;;;;;;;;30.00;96.30;;;;;;1820557;76;20202;-91
2021/08/09 14:49:58;;;;;;;;;;;30.00;97.00;;;;;;1817692;76;20198;-91
2021/08/09 14:52:28;;;;;;;;;;;30.00;98.10;;;;;;1818273;77;20164;-93
2021/08/09 14:55:04;;;;;;;;;;;30.00;98.10;;;;;;1822980;76;20896;-90